createdAt,value
2023-01-21T00:00:56.465Z,69.90
2023-01-21T00:03:23.172Z,69.60
2023-01-21T00:05:50.027Z,71.04
2023-01-21T00:08:17.480Z,74.92
2023-01-21T00:10:44.421Z,75.12
2023-01-21T00:13:20.064Z,76.25
2023-01-21T00:15:47.506Z,76.79
2023-01-21T00:18:14.106Z,76.96
2023-01-21T00:20:40.965Z,77.17
2023-01-21T00:23:08.046Z,76.88
2023-01-21T00:25:34.988Z,76.39
2023-01-21T00:28:01.856Z,78.70
2023-01-21T00:30:28.750Z,78.71
2023-01-21T00:32:56.330Z,76.60
2023-01-21T00:35:26.684Z,75.25
2023-01-21T00:37:53.445Z,74.29
2023-01-21T00:40:20.078Z,71.67
2023-01-21T00:42:46.854Z,69.41
2023-01-21T00:45:13.475Z,68.27
2023-01-21T00:47:40.462Z,67.67
2023-01-21T00:50:07.520Z,66.03
2023-01-21T00:52:34.086Z,65.50
2023-01-21T00:55:01.032Z,64.71
2023-01-21T00:57:27.911Z,64.78
2023-01-21T00:59:54.974Z,65.04
2023-01-21T01:02:21.471Z,64.46
2023-01-21T01:04:48.164Z,64.22
2023-01-21T01:07:14.935Z,63.66
2023-01-21T01:09:41.423Z,63.67
2023-01-21T01:12:07.893Z,64.30
2023-01-21T01:14:34.571Z,64.56
2023-01-21T01:17:01.595Z,64.14
2023-01-21T01:19:28.452Z,66.88
2023-01-21T01:21:55.426Z,68.54
2023-01-21T01:24:22.071Z,69.55
2023-01-21T01:26:49.034Z,67.79
2023-01-21T01:29:15.439Z,66.88
2023-01-21T01:31:44.020Z,66.59
2023-01-21T01:34:10.481Z,67.36
2023-01-21T01:36:37.413Z,66.50
2023-01-21T01:39:05.337Z,66.47
2023-01-21T01:41:32.634Z,67.15
2023-01-21T01:44:01.035Z,66.60
2023-01-21T01:46:37.108Z,66.86
2023-01-21T01:49:17.433Z,65.93
2023-01-21T01:51:47.581Z,66.92
2023-01-21T01:54:18.083Z,68.70
2023-01-21T01:56:47.442Z,71.90
2023-01-21T01:59:18.004Z,71.13
2023-01-21T02:01:44.796Z,71.03
2023-01-21T02:04:14.535Z,69.20
2023-01-21T02:06:41.505Z,69.35
2023-01-21T02:09:08.724Z,71.57
2023-01-21T02:11:36.615Z,72.73
2023-01-21T02:14:04.135Z,70.42
2023-01-21T02:16:43.490Z,69.40
2023-01-21T02:19:39.171Z,67.68
2023-01-21T02:22:24.333Z,66.79
2023-01-21T02:25:11.061Z,66.44
2023-01-21T02:27:49.415Z,65.30
2023-01-21T02:30:27.908Z,64.73
2023-01-21T02:33:07.164Z,66.17
2023-01-21T02:36:06.213Z,66.67
2023-01-21T02:38:37.953Z,66.23
2023-01-21T02:41:21.747Z,65.76
2023-01-21T02:44:03.496Z,64.03
2023-01-21T02:46:44.469Z,63.28
2023-01-21T02:49:37.426Z,62.92
2023-01-21T02:52:06.913Z,63.05
2023-01-21T02:54:39.336Z,62.67
2023-01-21T02:57:13.075Z,62.12
2023-01-21T02:59:49.523Z,62.25
2023-01-21T03:02:24.604Z,63.10
2023-01-21T03:05:00.451Z,63.50
2023-01-21T03:07:37.822Z,63.75
2023-01-21T03:10:19.875Z,64.71
2023-01-21T03:13:00.375Z,64.83
2023-01-21T03:15:47.140Z,64.70
2023-01-21T03:18:19.723Z,66.16
2023-01-21T03:21:09.875Z,68.50
2023-01-21T03:23:43.903Z,67.93
2023-01-21T03:26:12.559Z,67.97
2023-01-21T03:28:43.479Z,68.32
2023-01-21T03:31:12.555Z,68.26
2023-01-21T03:33:41.391Z,67.63
2023-01-21T03:36:20.003Z,66.97
2023-01-21T03:38:49.970Z,67.91
2023-01-21T03:41:21.046Z,71.30
2023-01-21T03:43:47.956Z,69.33
2023-01-21T03:46:21.924Z,66.71
2023-01-21T03:49:00.106Z,65.30
2023-01-21T03:51:32.081Z,64.34
2023-01-21T03:54:01.102Z,66.68
2023-01-21T03:56:27.953Z,68.49
2023-01-21T03:58:58.534Z,68.14
2023-01-21T04:01:25.553Z,68.02
2023-01-21T04:03:54.863Z,66.81
2023-01-21T04:06:23.231Z,65.51
2023-01-21T04:08:50.183Z,65.68
2023-01-21T04:11:17.696Z,65.80
2023-01-21T04:13:44.272Z,64.64
2023-01-21T04:16:16.819Z,64.31
2023-01-21T04:18:43.590Z,67.96
2023-01-21T04:21:13.178Z,66.82
2023-01-21T04:23:39.736Z,65.06
2023-01-21T04:26:06.333Z,65.64
2023-01-21T04:28:32.811Z,64.31
2023-01-21T04:30:59.716Z,66.23
2023-01-21T04:33:26.537Z,66.92
2023-01-21T04:35:59.636Z,68.33
2023-01-21T04:38:26.892Z,66.88
2023-01-21T04:40:54.276Z,67.05
2023-01-21T04:43:23.796Z,67.15
2023-01-21T04:45:50.592Z,65.16
2023-01-21T04:48:18.169Z,64.66
2023-01-21T04:50:46.322Z,66.23
2023-01-21T04:53:13.108Z,67.30
2023-01-21T04:55:42.289Z,67.25
2023-01-21T04:58:10.243Z,66.24
2023-01-21T05:00:37.000Z,64.99
2023-01-21T05:03:04.088Z,66.68
2023-01-21T05:05:30.639Z,66.66
2023-01-21T05:07:57.222Z,67.80
2023-01-21T05:10:25.295Z,66.95
2023-01-21T05:12:51.935Z,65.96
2023-01-21T05:15:18.563Z,65.53
2023-01-21T05:17:46.978Z,65.32
2023-01-21T05:20:13.712Z,65.26
2023-01-21T05:22:40.944Z,65.69
2023-01-21T05:25:07.639Z,65.09
2023-01-21T05:27:34.636Z,66.30
2023-01-21T05:30:01.657Z,67.71
2023-01-21T05:32:29.541Z,69.46
2023-01-21T05:34:56.359Z,72.78
2023-01-21T05:37:23.324Z,75.14
2023-01-21T05:39:50.233Z,76.45
2023-01-21T05:42:17.414Z,77.20
2023-01-21T05:44:44.125Z,74.37
2023-01-21T05:47:10.730Z,76.56
2023-01-21T05:49:38.028Z,75.01
2023-01-21T05:52:04.794Z,79.68
2023-01-21T05:54:32.754Z,77.74
2023-01-21T05:56:59.746Z,73.36
2023-01-21T05:59:26.591Z,69.59
2023-01-21T06:01:53.357Z,68.51
2023-01-21T06:04:20.874Z,67.08
2023-01-21T06:06:49.905Z,67.48
2023-01-21T06:09:16.680Z,68.02
2023-01-21T06:11:44.572Z,68.30
2023-01-21T06:14:13.536Z,68.70
2023-01-21T06:16:40.644Z,67.72
2023-01-21T06:19:07.635Z,66.31
2023-01-21T06:21:34.131Z,67.20
2023-01-21T06:24:01.973Z,70.51
2023-01-21T06:26:28.945Z,73.05
2023-01-21T06:28:56.934Z,73.52
2023-01-21T06:31:25.418Z,76.04
2023-01-21T06:33:52.315Z,77.04
2023-01-21T06:36:19.383Z,73.49
2023-01-21T06:38:46.356Z,71.29
2023-01-21T06:41:13.165Z,68.24
2023-01-21T06:43:40.121Z,68.32
2023-01-21T06:46:07.000Z,66.72
2023-01-21T06:48:33.708Z,66.44
2023-01-21T06:51:01.252Z,65.95
2023-01-21T06:53:28.206Z,66.94
2023-01-21T06:55:55.112Z,66.46
2023-01-21T06:58:21.635Z,67.30
2023-01-21T07:00:48.195Z,66.97
2023-01-21T07:03:14.708Z,65.40
2023-01-21T07:05:41.581Z,64.92
2023-01-21T07:08:08.328Z,64.44
2023-01-21T07:10:36.356Z,64.05
2023-01-21T07:13:02.843Z,64.42
2023-01-21T07:15:31.104Z,64.60
2023-01-21T07:17:58.205Z,65.00
2023-01-21T07:20:26.121Z,64.69
2023-01-21T07:22:52.630Z,64.49
2023-01-21T07:25:19.843Z,67.59
2023-01-21T07:27:47.491Z,67.60
2023-01-21T07:30:16.713Z,66.44
2023-01-21T07:32:43.430Z,67.78
2023-01-21T07:35:10.945Z,70.82
2023-01-21T07:37:37.536Z,73.34
2023-01-21T07:40:07.353Z,76.62
2023-01-21T07:42:36.262Z,77.32
2023-01-21T07:45:04.173Z,82.54
2023-01-21T07:47:30.664Z,80.38
2023-01-21T07:49:57.152Z,78.18
2023-01-21T07:52:24.289Z,79.01
2023-01-21T07:54:50.865Z,77.87
2023-01-21T07:57:18.130Z,79.23
2023-01-21T07:59:45.127Z,79.30
2023-01-21T08:02:12.691Z,78.67
2023-01-21T08:04:39.826Z,80.70
2023-01-21T08:07:12.838Z,85.11
2023-01-21T08:09:39.932Z,81.71
2023-01-21T08:12:07.949Z,85.38
2023-01-21T08:14:34.829Z,89.18
2023-01-21T08:17:01.803Z,88.74
2023-01-21T08:19:28.963Z,89.51
2023-01-21T08:21:56.704Z,87.05
2023-01-21T08:24:24.660Z,86.24
2023-01-21T08:26:52.561Z,86.93
2023-01-21T08:29:22.063Z,83.96
2023-01-21T08:31:52.605Z,84.29
2023-01-21T08:34:19.753Z,84.52
2023-01-21T08:36:46.785Z,87.59
2023-01-21T08:39:19.700Z,84.63
2023-01-21T08:41:49.717Z,83.96
2023-01-21T08:44:19.217Z,83.46
2023-01-21T08:46:47.311Z,83.06
2023-01-21T08:49:14.501Z,85.03
2023-01-21T08:51:42.560Z,86.74
2023-01-21T08:54:09.474Z,87.03
2023-01-21T08:56:36.168Z,83.98
2023-01-21T08:59:03.608Z,87.30
2023-01-21T09:01:30.290Z,86.53
2023-01-21T09:04:00.247Z,87.96
2023-01-21T09:06:28.281Z,85.45
2023-01-21T09:08:55.404Z,83.34
2023-01-21T09:11:23.623Z,84.00
2023-01-21T09:13:51.768Z,84.24
2023-01-21T09:16:20.745Z,88.74
2023-01-21T09:18:50.520Z,88.89
2023-01-21T09:21:17.227Z,92.96
2023-01-21T09:23:44.527Z,92.66
2023-01-21T09:26:19.325Z,90.75
2023-01-21T09:28:51.092Z,88.72
2023-01-21T09:31:18.623Z,89.75
2023-01-21T09:33:46.736Z,88.08
2023-01-21T09:36:15.290Z,89.35
2023-01-21T09:38:46.255Z,88.54
2023-01-21T09:41:19.016Z,88.69
2023-01-21T09:43:50.777Z,89.92
2023-01-21T09:46:47.020Z,91.47
2023-01-21T09:49:17.791Z,89.64
2023-01-21T09:51:47.175Z,85.51
2023-01-21T09:54:33.740Z,87.06
2023-01-21T09:57:12.645Z,88.63
2023-01-21T09:59:46.971Z,89.77
2023-01-21T10:02:26.030Z,86.23
2023-01-21T10:05:16.284Z,85.24
2023-01-21T10:07:49.880Z,82.67
2023-01-21T10:10:21.912Z,84.93
2023-01-21T10:12:48.247Z,85.03
2023-01-21T10:15:32.900Z,80.54
2023-01-21T10:18:15.287Z,79.47
2023-01-21T10:20:48.476Z,82.30
2023-01-21T10:23:19.267Z,87.70
2023-01-21T10:25:48.348Z,88.29
2023-01-21T10:28:19.881Z,86.50
2023-01-21T10:30:49.132Z,83.09
2023-01-21T10:33:26.546Z,80.96
2023-01-21T10:36:02.288Z,84.02
2023-01-21T10:38:40.081Z,87.52
2023-01-21T10:41:26.843Z,85.40
2023-01-21T10:44:09.766Z,82.36
2023-01-21T10:46:54.296Z,82.69
2023-01-21T10:49:38.938Z,82.41
2023-01-21T10:52:24.290Z,81.90
2023-01-21T10:55:18.184Z,86.96
2023-01-21T10:57:54.161Z,90.40
2023-01-21T11:00:33.660Z,89.96
2023-01-21T11:03:02.294Z,92.45
2023-01-21T11:05:30.411Z,93.54
2023-01-21T11:07:57.107Z,91.49
2023-01-21T11:10:25.031Z,88.52
2023-01-21T11:12:51.513Z,87.84
2023-01-21T11:15:19.718Z,89.39
2023-01-21T11:17:48.061Z,89.89
2023-01-21T11:20:35.351Z,92.39
2023-01-21T11:23:05.572Z,90.35
2023-01-21T11:25:41.046Z,85.58
2023-01-21T11:28:24.572Z,86.41
2023-01-21T11:31:02.417Z,86.62
2023-01-21T11:33:28.971Z,89.90
2023-01-21T11:35:55.910Z,91.17
2023-01-21T11:38:35.450Z,87.66
2023-01-21T11:41:10.931Z,88.59
2023-01-21T11:43:40.541Z,85.40
2023-01-21T11:46:26.204Z,85.88
2023-01-21T11:49:07.956Z,84.89
2023-01-21T11:51:35.459Z,87.12
2023-01-21T11:54:08.349Z,86.70
2023-01-21T11:56:36.348Z,84.92
2023-01-21T11:59:11.259Z,84.16
2023-01-21T12:01:37.761Z,82.30
2023-01-21T12:04:05.602Z,83.67
2023-01-21T12:06:33.255Z,83.37
2023-01-21T12:09:03.067Z,85.41
2023-01-21T12:11:31.335Z,82.13
2023-01-21T12:14:03.999Z,80.54
2023-01-21T12:16:32.725Z,81.16
2023-01-21T12:18:59.133Z,79.97
2023-01-21T12:21:38.817Z,78.49
2023-01-21T12:24:08.651Z,78.78
2023-01-21T12:26:42.303Z,74.44
2023-01-21T12:29:09.115Z,74.08
2023-01-21T12:31:37.765Z,75.17
2023-01-21T12:34:29.184Z,74.32
2023-01-21T12:37:19.645Z,76.76
2023-01-21T12:39:47.516Z,76.79
2023-01-21T12:42:16.607Z,75.47
2023-01-21T12:44:49.919Z,75.50
2023-01-21T12:47:36.728Z,75.37
2023-01-21T12:50:05.654Z,76.01
2023-01-21T12:52:32.036Z,74.17
2023-01-21T12:55:07.756Z,74.59
2023-01-21T12:57:52.973Z,73.38
2023-01-21T13:00:25.575Z,73.78
2023-01-21T13:02:56.634Z,74.14
2023-01-21T13:05:35.562Z,71.82
2023-01-21T13:08:14.157Z,70.96
2023-01-21T13:13:38.992Z,70.21
2023-01-21T13:16:08.099Z,70.51
2023-01-21T13:18:36.028Z,73.97
2023-01-21T13:21:20.650Z,73.69
2023-01-21T13:23:51.720Z,73.30
2023-01-21T13:26:41.010Z,71.39
2023-01-21T13:29:11.447Z,71.30
2023-01-21T13:31:47.562Z,71.67
2023-01-21T13:34:23.792Z,71.20
2023-01-21T13:37:03.132Z,70.71
2023-01-21T13:39:35.637Z,68.28
2023-01-21T13:42:28.667Z,68.14
2023-01-21T13:45:15.828Z,69.04
2023-01-21T13:47:48.613Z,67.57
2023-01-21T13:50:18.379Z,66.88
2023-01-21T13:53:04.010Z,66.23
2023-01-21T13:55:43.572Z,65.37
2023-01-21T13:58:14.196Z,65.04
2023-01-21T14:00:47.080Z,65.83
2023-01-21T14:03:13.603Z,65.89
2023-01-21T14:05:41.004Z,65.99
2023-01-21T14:08:11.625Z,65.88
2023-01-21T14:10:46.167Z,65.77
2023-01-21T14:13:32.819Z,65.50
2023-01-21T14:16:17.312Z,65.46
2023-01-21T14:18:47.353Z,66.97
2023-01-21T14:21:29.046Z,68.40
2023-01-21T14:24:03.738Z,68.61
2023-01-21T14:26:38.571Z,68.85
2023-01-21T14:29:10.760Z,68.88
2023-01-21T14:31:41.580Z,70.41
2023-01-21T14:34:20.952Z,70.44
2023-01-21T14:37:09.253Z,71.40
2023-01-21T14:39:42.281Z,72.33
2023-01-21T14:42:13.365Z,72.07
2023-01-21T14:44:52.941Z,72.92
2023-01-21T14:47:23.621Z,74.22
2023-01-21T14:49:51.802Z,74.46
2023-01-21T14:52:43.411Z,74.43
2023-01-21T14:55:29.077Z,75.20
2023-01-21T14:57:57.942Z,76.43
2023-01-21T15:00:33.276Z,77.69
2023-01-21T15:03:03.750Z,77.35
2023-01-21T15:05:33.783Z,79.93
2023-01-21T15:08:00.178Z,82.33
2023-01-21T15:10:31.508Z,82.36
2023-01-21T15:13:01.176Z,82.03
2023-01-21T15:15:37.214Z,82.63
2023-01-21T15:18:24.434Z,83.83
2023-01-21T15:21:02.464Z,83.91
2023-01-21T15:23:38.798Z,83.76
2023-01-21T15:26:10.180Z,82.90
2023-01-21T15:28:51.476Z,84.03
2023-01-21T15:31:23.753Z,82.68
2023-01-21T15:33:59.121Z,83.55
2023-01-21T15:36:31.224Z,86.38
2023-01-21T15:39:02.715Z,85.95
2023-01-21T15:41:47.891Z,83.90
2023-01-21T15:44:16.853Z,88.09
2023-01-21T15:46:58.710Z,89.46
2023-01-21T15:49:28.996Z,87.21
2023-01-21T15:52:21.062Z,88.62
2023-01-21T15:54:57.810Z,92.06
2023-01-21T15:57:35.549Z,93.14
2023-01-21T16:00:10.296Z,94.13
2023-01-21T16:02:48.799Z,96.71
2023-01-21T16:05:15.612Z,95.38
2023-01-21T16:08:07.081Z,94.75
2023-01-21T16:14:18.845Z,91.30
2023-01-21T16:17:06.897Z,90.18
2023-01-21T16:19:36.253Z,88.90
2023-01-21T16:22:07.533Z,89.35
2023-01-21T16:24:38.821Z,84.68
2023-01-21T16:27:19.179Z,85.67
2023-01-21T16:29:54.239Z,84.02
2023-01-21T16:32:21.039Z,84.59
2023-01-21T16:34:48.867Z,85.32
2023-01-21T16:37:17.040Z,89.11
2023-01-21T16:39:47.345Z,89.18
2023-01-21T16:42:36.928Z,91.23
2023-01-21T16:45:09.253Z,90.87
2023-01-21T16:47:37.011Z,89.56
2023-01-21T16:50:17.589Z,90.14
2023-01-21T16:52:44.350Z,89.83
2023-01-21T16:55:19.076Z,90.04
2023-01-21T16:57:50.098Z,88.25
2023-01-21T17:00:30.287Z,91.58
2023-01-21T17:02:59.603Z,91.49
2023-01-21T17:05:29.292Z,91.13
2023-01-21T17:07:59.342Z,90.43
2023-01-21T17:10:29.052Z,88.19
2023-01-21T17:12:59.239Z,88.76
2023-01-21T17:15:29.585Z,88.47
2023-01-21T17:17:58.236Z,88.49
2023-01-21T17:20:40.293Z,89.17
2023-01-21T17:23:16.039Z,90.58
2023-01-21T17:26:05.572Z,88.26
2023-01-21T17:28:40.807Z,89.91
2023-01-21T17:31:16.537Z,89.17
2023-01-21T17:33:44.421Z,88.89
2023-01-21T17:36:15.878Z,87.48
2023-01-21T17:38:44.004Z,87.81
2023-01-21T17:41:23.861Z,88.74
2023-01-21T17:43:54.384Z,88.48
2023-01-21T17:46:23.138Z,89.09
2023-01-21T17:48:52.224Z,87.87
2023-01-21T17:51:25.937Z,90.08
2023-01-21T17:53:55.875Z,89.56
2023-01-21T17:56:35.640Z,89.29
2023-01-21T17:59:02.711Z,89.25
2023-01-21T18:01:29.963Z,88.23
2023-01-21T18:03:56.977Z,88.76
2023-01-21T18:06:26.886Z,87.98
2023-01-21T18:08:55.340Z,87.77
2023-01-21T18:11:23.572Z,87.11
2023-01-21T18:13:53.479Z,87.52
2023-01-21T18:16:21.527Z,86.91
2023-01-21T18:18:50.425Z,85.32
2023-01-21T18:21:19.507Z,86.98
2023-01-21T18:23:47.306Z,85.77
2023-01-21T18:26:25.390Z,84.38
2023-01-21T18:28:52.472Z,84.08
2023-01-21T18:31:21.174Z,82.48
2023-01-21T18:33:49.476Z,83.49
2023-01-21T18:36:18.255Z,85.42
2023-01-21T18:38:45.457Z,85.60
2023-01-21T18:41:15.185Z,83.68
2023-01-21T18:43:43.032Z,83.88
2023-01-21T18:46:12.427Z,85.60
2023-01-21T18:48:41.042Z,85.01
2023-01-21T18:51:09.599Z,85.64
2023-01-21T18:53:37.205Z,86.38
2023-01-21T18:56:06.244Z,85.59
2023-01-21T18:58:33.833Z,85.28
2023-01-21T19:01:10.868Z,86.38
2023-01-21T19:03:45.486Z,87.03
2023-01-21T19:06:14.445Z,86.29
2023-01-21T19:08:44.873Z,86.11
2023-01-21T19:11:13.488Z,85.81
2023-01-21T19:13:40.751Z,85.43
2023-01-21T19:16:14.397Z,87.62
2023-01-21T19:18:41.025Z,86.58
2023-01-21T19:21:08.588Z,86.87
2023-01-21T19:23:35.874Z,87.02
2023-01-21T19:26:03.527Z,87.12
2023-01-21T19:28:31.006Z,87.77
2023-01-21T19:30:58.495Z,87.32
2023-01-21T19:33:25.838Z,87.32
2023-01-21T19:36:00.482Z,88.33
2023-01-21T19:38:27.459Z,87.57
2023-01-21T19:40:54.951Z,88.64
2023-01-21T19:43:22.187Z,88.62
2023-01-21T19:45:49.976Z,87.60
2023-01-21T19:48:18.904Z,87.37
2023-01-21T19:50:46.505Z,87.81
2023-01-21T19:53:16.040Z,89.82
2023-01-21T19:55:43.053Z,89.46
2023-01-21T19:58:19.920Z,90.82
2023-01-21T20:00:55.107Z,91.44
2023-01-21T20:03:22.895Z,90.36
2023-01-21T20:05:52.258Z,90.73
2023-01-21T20:08:23.959Z,89.96
2023-01-21T20:10:56.590Z,93.13
2023-01-21T20:13:24.109Z,95.13
2023-01-21T20:15:52.178Z,93.03
2023-01-21T20:18:26.318Z,93.66
2023-01-21T20:20:56.836Z,92.76
2023-01-21T20:23:25.534Z,93.64
2023-01-21T20:25:55.639Z,93.95
2023-01-21T20:28:24.162Z,92.46
2023-01-21T20:30:51.683Z,92.46
2023-01-21T20:33:19.278Z,92.26
2023-01-21T20:36:12.242Z,92.52
2023-01-21T20:38:43.469Z,92.19
2023-01-21T20:41:11.426Z,91.56
2023-01-21T20:43:41.518Z,92.15
2023-01-21T20:46:19.886Z,92.64
2023-01-21T20:48:46.861Z,92.93
2023-01-21T20:51:16.395Z,93.64
2023-01-21T20:53:43.286Z,94.09
2023-01-21T20:56:19.251Z,93.51
2023-01-21T20:58:48.344Z,93.97
2023-01-21T21:01:16.440Z,93.13
2023-01-21T21:03:43.259Z,92.53
2023-01-21T21:06:20.384Z,92.32
2023-01-21T21:08:47.581Z,91.74
2023-01-21T21:11:15.516Z,90.98
2023-01-21T21:13:42.715Z,90.82
2023-01-21T21:16:16.766Z,91.83
2023-01-21T21:18:44.997Z,91.10
2023-01-21T21:21:12.487Z,90.65
2023-01-21T21:23:52.862Z,91.01
2023-01-21T21:26:24.216Z,90.79
2023-01-21T21:28:54.924Z,91.23
2023-01-21T21:31:22.504Z,92.52
2023-01-21T21:33:49.673Z,90.46
2023-01-21T21:36:18.946Z,91.79
2023-01-21T21:38:46.080Z,90.83
2023-01-21T21:41:32.896Z,90.45
2023-01-21T21:43:59.858Z,90.38
2023-01-21T21:46:45.411Z,91.25
2023-01-21T21:49:14.655Z,91.00
2023-01-21T21:51:41.382Z,90.12
2023-01-21T21:54:14.205Z,90.26
2023-01-21T21:56:41.178Z,90.50
2023-01-21T21:59:08.787Z,91.57
2023-01-21T22:01:36.216Z,89.22
2023-01-21T22:04:06.892Z,89.94
2023-01-21T22:06:33.386Z,92.23
2023-01-21T22:09:00.150Z,91.85
2023-01-21T22:11:28.405Z,91.29
2023-01-21T22:13:56.152Z,92.33
2023-01-21T22:16:27.759Z,92.21
2023-01-21T22:18:55.075Z,89.73
2023-01-21T22:21:34.667Z,90.29
2023-01-21T22:24:03.006Z,90.89
2023-01-21T22:26:31.699Z,91.08
2023-01-21T22:28:59.653Z,90.48
2023-01-21T22:31:29.168Z,92.13
2023-01-21T22:33:57.206Z,92.20
2023-01-21T22:36:24.704Z,91.24
2023-01-21T22:38:53.416Z,91.08
2023-01-21T22:41:22.582Z,90.65
2023-01-21T22:43:49.888Z,91.13
2023-01-21T22:46:22.748Z,90.95
2023-01-21T22:48:49.796Z,91.40
2023-01-21T22:51:18.825Z,90.73
2023-01-21T22:53:46.221Z,89.70
2023-01-21T22:56:13.999Z,89.05
2023-01-21T22:58:40.856Z,90.62
2023-01-21T23:01:09.082Z,89.90
2023-01-21T23:03:38.268Z,89.74
2023-01-21T23:06:07.088Z,89.34
2023-01-21T23:08:34.525Z,89.85
2023-01-21T23:11:03.312Z,89.68
2023-01-21T23:13:31.180Z,89.97
2023-01-21T23:15:59.593Z,90.21
2023-01-21T23:18:27.094Z,89.91
2023-01-21T23:20:55.501Z,89.98
2023-01-21T23:23:27.044Z,90.10
2023-01-21T23:25:56.666Z,90.89
2023-01-21T23:28:26.662Z,90.12
2023-01-21T23:30:58.815Z,92.02
2023-01-21T23:33:26.265Z,92.68
2023-01-21T23:35:56.579Z,90.55
2023-01-21T23:38:27.309Z,91.00
2023-01-21T23:40:57.970Z,90.71
2023-01-21T23:43:31.303Z,91.39
2023-01-21T23:46:02.962Z,92.07
2023-01-21T23:48:38.568Z,91.44
2023-01-21T23:51:09.331Z,91.84
2023-01-21T23:53:36.573Z,91.51
2023-01-21T23:56:22.671Z,92.47
2023-01-21T23:58:50.024Z,91.96
